Time;durP1;ratioP1;P1;durP2;ratioP2;P2;SDS_P1;SDS_P2;PMS_P1;PMS_P2;Temp;Humidity;BMP_temperature;BMP_pressure;BME280_temperature;BME280_humidity;BME280_pressure;Samples;Min_cycle;Max_cycle;Signal;HPM_P1;HPM_P2
2022/02/04 00:07:54;;;;;;;23.65;20.10;;;;;;;7.99;100.00;101163.53;5193613;28;20034;-75
2022/02/04 00:22:43;;;;;;;22.83;19.30;;;;;;;8.03;100.00;101157.16;5194913;28;20034;-73
2022/02/04 00:24:32;;;;;;;21.45;18.60;;;;;;;8.04;100.00;101151.00;5189471;28;20045;-75
2022/02/04 00:27:09;;;;;;;21.40;18.05;;;;;;;8.07;100.00;101156.94;5193726;28;20415;-74
2022/02/04 00:32:53;;;;;;;21.27;17.55;;;;;;;8.02;100.00;101139.81;5153605;28;20050;-75
2022/02/04 00:41:05;;;;;;;21.85;16.58;;;;;;;8.02;100.00;101136.38;5191354;28;20026;-74
2022/02/04 00:43:38;;;;;;;18.63;15.80;;;;;;;8.05;100.00;101146.59;5196206;28;20038;-75
2022/02/04 00:54:25;;;;;;;22.33;16.02;;;;;;;8.02;100.00;101115.50;5193777;28;20042;-74
2022/02/04 01:25:54;;;;;;;17.40;13.32;;;;;;;8.04;100.00;101114.47;5196980;28;20444;-73
2022/02/04 01:27:52;;;;;;;17.38;14.13;;;;;;;8.04;100.00;101103.19;5196807;28;20484;-73
2022/02/04 01:30:29;;;;;;;16.15;13.52;;;;;;;8.07;100.00;101107.34;5195218;28;20018;-74
2022/02/04 01:33:03;;;;;;;16.27;13.07;;;;;;;8.02;100.00;101110.28;5196961;28;20034;-73
2022/02/04 01:35:34;;;;;;;17.55;13.32;;;;;;;7.97;100.00;101101.97;5196213;28;20483;-73
2022/02/04 01:38:06;;;;;;;19.23;13.82;;;;;;;8.00;100.00;101112.19;5195813;28;20034;-73
2022/02/04 01:40:38;;;;;;;16.77;13.55;;;;;;;7.94;100.00;101105.59;5195528;28;20451;-74
2022/02/04 01:43:09;;;;;;;17.20;13.73;;;;;;;8.02;100.00;101123.34;5196199;28;20088;-73
2022/02/04 01:45:40;;;;;;;17.38;14.05;;;;;;;8.01;100.00;101121.66;5195417;28;20022;-73
2022/02/04 01:48:12;;;;;;;16.77;13.25;;;;;;;8.01;100.00;101116.47;5195942;28;20073;-73
2022/02/04 01:50:46;;;;;;;17.92;13.95;;;;;;;8.01;100.00;101119.91;5180658;28;20026;-73
2022/02/04 01:53:21;;;;;;;18.45;14.07;;;;;;;7.98;100.00;101116.66;5195007;28;20430;-74
2022/02/04 01:55:52;;;;;;;17.08;13.23;;;;;;;7.96;100.00;101108.94;5195961;28;20026;-76
2022/02/04 01:58:25;;;;;;;20.17;14.80;;;;;;;7.92;100.00;101099.69;5195437;28;20042;-73
2022/02/04 02:00:56;;;;;;;18.10;14.05;;;;;;;7.96;100.00;101108.13;5194609;28;20034;-75
2022/02/04 02:03:28;;;;;;;16.85;13.65;;;;;;;7.84;100.00;101091.56;5180588;28;20084;-73
2022/02/04 02:06:05;;;;;;;17.70;13.75;;;;;;;7.95;100.00;101107.25;5193897;28;20028;-73
2022/02/04 02:08:40;;;;;;;18.20;13.40;;;;;;;7.95;100.00;101107.25;5196257;28;20041;-73
2022/02/04 02:11:11;;;;;;;15.88;12.23;;;;;;;7.95;100.00;101103.81;5197324;28;20038;-73
2022/02/04 02:13:51;;;;;;;19.42;13.60;;;;;;;7.96;100.00;101095.09;5195124;28;20021;-73
2022/02/04 02:16:41;;;;;;;16.48;12.75;;;;;;;7.99;100.00;101094.84;5195862;28;20045;-73
2022/02/04 02:36:49;;;;;;;17.67;12.23;;;;;;;8.00;100.00;101097.38;5194819;28;20046;-73
2022/02/04 02:45:16;;;;;;;16.35;11.98;;;;;;;8.00;100.00;101081.72;5195021;28;20117;-76
2022/02/04 02:50:21;;;;;;;14.65;12.18;;;;;;;7.93;100.00;101059.59;5194421;28;20072;-74
2022/02/04 02:58:24;;;;;;;15.88;11.60;;;;;;;7.99;100.00;101053.09;5194539;28;20478;-73
2022/02/04 03:01:06;;;;;;;13.88;11.57;;;;;;;8.01;100.00;101059.88;5194025;28;20030;-73
2022/02/04 03:03:38;;;;;;;12.43;11.13;;;;;;;8.05;100.00;101063.13;5195169;28;20053;-73
2022/02/04 03:06:09;;;;;;;15.60;11.63;;;;;;;8.01;100.00;101059.88;5193267;28;20538;-74
2022/02/04 03:08:41;;;;;;;13.50;10.63;;;;;;;8.00;100.00;101058.22;5193327;28;20084;-73
2022/02/04 03:11:12;;;;;;;12.52;10.50;;;;;;;7.95;100.00;101041.22;5195767;28;20549;-73
2022/02/04 03:13:44;;;;;;;13.05;10.82;;;;;;;7.98;100.00;101052.25;5194431;28;20487;-73
2022/02/04 03:16:18;;;;;;;13.55;11.05;;;;;;;7.97;100.00;101047.16;5194930;28;20072;-73
2022/02/04 03:18:51;;;;;;;14.25;11.07;;;;;;;7.97;100.00;101047.16;5194102;28;20038;-73
2022/02/04 03:21:30;;;;;;;13.43;10.20;;;;;;;8.00;100.00;101041.75;5194217;28;20548;-73
2022/02/04 03:24:07;;;;;;;12.75;11.30;;;;;;;7.99;100.00;101046.13;5193678;28;20543;-73
2022/02/04 03:27:01;;;;;;;12.55;10.95;;;;;;;8.00;100.00;101047.78;5193456;28;20014;-73
2022/02/04 03:29:50;;;;;;;14.68;10.73;;;;;;;7.98;100.00;101035.78;5193835;28;20022;-73
2022/02/04 03:32:23;;;;;;;12.77;10.90;;;;;;;7.96;100.00;101051.56;5193266;28;20483;-73
2022/02/04 03:34:54;;;;;;;13.23;10.00;;;;;;;8.00;100.00;101039.13;5193617;28;20048;-74
2022/02/04 03:37:25;;;;;;;13.25;10.32;;;;;;;8.01;100.00;101036.41;5193722;28;20034;-76
2022/02/04 03:39:56;;;;;;;12.80;9.57;;;;;;;8.00;100.00;101042.56;5192790;28;20026;-74
2022/02/04 03:42:29;;;;;;;14.55;10.82;;;;;;;7.98;100.00;101031.41;5192574;28;20072;-75
2022/02/04 03:45:00;;;;;;;14.35;10.15;;;;;;;8.00;100.00;101026.09;5193538;28;20121;-75
2022/02/04 03:47:32;;;;;;;13.40;10.25;;;;;;;8.01;100.00;101025.97;5193162;28;20037;-73
2022/02/04 03:50:04;;;;;;;13.27;10.23;;;;;;;7.98;100.00;101022.75;5193340;28;20065;-73
2022/02/04 03:52:37;;;;;;;11.73;9.27;;;;;;;7.95;100.00;101030.78;5193800;28;20030;-74
2022/02/04 03:55:09;;;;;;;;;;;;;;;8.40;100.00;101025.84;5194445;28;20027;-73
2022/02/04 03:57:41;;;;;;;12.52;9.18;;;;;;;8.01;100.00;101018.13;5192801;28;19921;-73
2022/02/04 04:00:16;;;;;;;12.02;9.52;;;;;;;8.02;100.00;101011.13;5194333;28;20057;-74
2022/02/04 04:02:48;;;;;;;11.63;8.90;;;;;;;7.98;100.00;101002.69;5192136;28;20076;-74
2022/02/04 04:05:19;;;;;;;10.98;8.48;;;;;;;7.97;100.00;101002.81;5194154;28;20043;-76
2022/02/04 04:07:51;;;;;;;11.15;8.68;;;;;;;7.87;100.00;100992.19;5194263;28;20116;-73
2022/02/04 04:10:25;;;;;;;12.18;8.65;;;;;;;7.98;100.00;101000.09;5192785;28;20042;-73
2022/02/04 04:12:58;;;;;;;13.20;9.20;;;;;;;7.95;100.00;101004.69;5193141;28;20539;-74
2022/02/04 04:15:30;;;;;;;11.35;8.85;;;;;;;7.96;100.00;100994.16;5197113;28;20037;-73
2022/02/04 04:18:02;;;;;;;11.20;8.60;;;;;;;7.92;100.00;100999.72;5179863;28;20414;-73
2022/02/04 04:20:33;;;;;;;9.65;7.75;;;;;;;7.88;100.00;100993.03;5197389;28;20129;-74
2022/02/04 04:23:05;;;;;;;11.90;8.07;;;;;;;7.91;100.00;100992.81;5196916;28;20113;-73
2022/02/04 04:25:37;;;;;;;9.75;8.35;;;;;;;7.90;100.00;100989.38;5197289;28;20311;-74
2022/02/04 04:28:08;;;;;;;13.35;8.25;;;;;;;7.95;100.00;100995.09;5197357;28;20034;-74
2022/02/04 04:30:39;;;;;;;10.93;8.18;;;;;;;7.97;100.00;100997.59;5198010;28;20031;-73
2022/02/04 04:33:11;;;;;;;9.80;7.93;;;;;;;7.93;100.00;100999.59;5197307;28;20088;-76
2022/02/04 04:35:43;;;;;;;9.90;7.00;;;;;;;7.98;100.00;101007.09;5196197;28;20050;-73
2022/02/04 05:31:30;;;;;;;7.10;4.38;;;;;;;8.23;100.00;100972.25;5181714;28;20800;-75
2022/02/04 05:34:01;;;;;;;6.22;4.15;;;;;;;8.22;100.00;100960.97;5189408;28;20026;-73
2022/02/04 05:36:37;;;;;;;6.18;4.32;;;;;;;8.22;100.00;100960.13;5189170;28;20034;-73
2022/02/04 05:39:10;;;;;;;7.10;4.40;;;;;;;8.18;100.00;100966.50;5196432;28;20144;-76
2022/02/04 05:41:46;;;;;;;7.82;4.30;;;;;;;8.23;100.00;100957.41;5195222;28;20500;-76
2022/02/04 05:44:18;;;;;;;5.97;3.75;;;;;;;8.26;100.00;100962.41;5196318;28;20945;-73
2022/02/04 05:46:54;;;;;;;5.50;4.10;;;;;;;8.26;100.00;100961.59;5195318;28;20053;-76
2022/02/04 05:49:28;;;;;;;6.28;3.70;;;;;;;8.24;100.00;100966.91;5195373;28;20125;-74
2022/02/04 05:52:21;;;;;;;8.13;4.97;;;;;;;8.26;100.00;100966.81;5195289;28;20105;-76
2022/02/04 05:55:05;;;;;;;6.32;3.67;;;;;;;8.32;100.00;100961.13;5195977;28;20484;-73
2022/02/04 05:57:55;;;;;;;6.75;3.60;;;;;;;8.29;100.00;100963.94;5195548;28;20507;-73
2022/02/04 06:22:31;;;;;;;6.18;4.43;;;;;;;8.09;100.00;100933.25;5195264;28;20022;-73
2022/02/04 06:25:07;;;;;;;7.20;4.10;;;;;;;8.11;100.00;100928.78;5194375;28;20030;-73
2022/02/04 06:27:39;;;;;;;6.90;4.00;;;;;;;8.12;100.00;100944.31;5178015;28;20030;-73
2022/02/04 06:30:11;;;;;;;4.47;3.97;;;;;;;8.10;100.00;100934.91;5196348;28;20030;-74
2022/02/04 06:32:42;;;;;;;5.43;3.60;;;;;;;8.10;100.00;100937.53;5194517;28;20433;-74
2022/02/04 06:35:15;;;;;;;6.93;4.15;;;;;;;8.10;100.00;100940.13;5193726;28;20057;-74
2022/02/04 06:37:46;;;;;;;5.50;3.97;;;;;;;8.09;100.00;100951.53;5193406;28;20049;-73
2022/02/04 06:40:17;;;;;;;6.95;4.07;;;;;;;8.03;100.00;100944.97;5195401;28;20120;-75
2022/02/04 06:42:48;;;;;;;5.20;3.30;;;;;;;8.07;100.00;100953.41;5177150;28;20026;-73
2022/02/04 06:45:20;;;;;;;7.90;4.10;;;;;;;8.09;100.00;100957.56;5195395;28;20124;-75
2022/02/04 06:47:51;;;;;;;5.60;3.92;;;;;;;8.08;100.00;100955.91;5193278;28;20046;-74
2022/02/04 06:50:23;;;;;;;4.63;3.60;;;;;;;8.08;100.00;100955.91;5194278;28;20030;-73
2022/02/04 06:52:54;;;;;;;5.13;4.10;;;;;;;8.03;100.00;100943.22;5178114;28;20026;-73
2022/02/04 06:55:25;;;;;;;5.93;4.05;;;;;;;8.02;100.00;100958.97;5195642;28;20530;-73
2022/02/04 06:57:58;;;;;;;6.50;3.85;;;;;;;8.01;100.00;100949.47;5216256;23;20054;-73
2022/02/04 07:00:29;;;;;;;6.53;4.73;;;;;;;8.01;100.00;100944.25;5217685;28;20385;-73
2022/02/04 07:03:00;;;;;;;8.23;5.00;;;;;;;7.93;100.00;100942.19;5221525;28;20025;-73
2022/02/04 07:05:39;;;;;;;6.97;5.55;;;;;;;7.87;100.00;100953.06;5224562;28;20112;-73
2022/02/04 07:08:20;;;;;;;6.85;5.38;;;;;;;7.88;100.00;100949.53;5220535;28;20033;-73
2022/02/04 07:13:29;;;;;;;6.05;4.55;;;;;;;7.90;100.00;100941.59;5217661;28;20030;-72
2022/02/04 07:21:40;;;;;;;6.80;5.43;;;;;;;7.86;100.00;100940.97;5220307;28;20548;-72
2022/02/04 07:24:12;;;;;;;8.13;5.97;;;;;;;7.84;100.00;100937.66;5220381;28;20030;-73
2022/02/04 07:26:43;;;;;;;7.38;5.70;;;;;;;7.90;100.00;100928.53;5219715;28;20014;-73
2022/02/04 07:29:15;;;;;;;6.97;5.50;;;;;;;7.92;100.00;100932.72;5221470;28;20048;-73
2022/02/04 07:31:47;;;;;;;9.02;5.75;;;;;;;7.91;100.00;100925.00;5221549;28;20120;-73
2022/02/04 07:34:35;;;;;;;8.02;5.65;;;;;;;7.90;100.00;100915.50;5219115;28;20034;-72
2022/02/04 07:43:06;;;;;;;6.90;5.78;;;;;;;7.93;100.00;100908.28;5164032;28;20730;-73
2022/02/04 07:45:39;;;;;;;8.70;6.10;;;;;;;7.96;100.00;100913.28;5201809;28;20038;-72
2022/02/04 07:48:11;;;;;;;9.10;6.82;;;;;;;7.92;100.00;100908.41;5203633;28;20108;-73
2022/02/04 07:50:44;;;;;;;7.07;6.32;;;;;;;7.91;100.00;100902.34;5218881;28;20492;-72
2022/02/04 07:53:16;;;;;;;8.55;6.97;;;;;;;7.97;100.00;100901.06;5222202;28;20160;-73
2022/02/04 07:55:49;;;;;;;7.70;6.90;;;;;;;7.98;100.00;100900.13;5219240;28;20041;-73
2022/02/04 07:58:20;;;;;;;8.80;7.40;;;;;;;7.98;100.00;100893.13;5213029;28;20057;-73
2022/02/04 08:00:52;;;;;;;8.07;7.03;;;;;;;8.02;100.00;100886.72;5216537;28;20604;-73
2022/02/04 08:05:57;;;;;;;8.30;7.40;;;;;;;8.01;100.00;100890.28;5221258;28;20245;-72
2022/02/04 08:08:37;;;;;;;8.05;7.22;;;;;;;8.04;100.00;100881.41;5218542;28;20330;-72
2022/02/04 08:19:21;;;;;;;10.75;6.90;;;;;;;8.17;100.00;100889.16;5221333;28;20041;-73
2022/02/04 08:24:38;;;;;;;8.50;7.15;;;;;;;8.23;100.00;100876.50;5223042;28;20033;-72
2022/02/04 08:30:26;;;;;;;9.15;7.25;;;;;;;8.24;100.00;100886.00;5217343;28;20513;-73
2022/02/04 08:38:52;;;;;;;7.50;6.80;;;;;;;8.27;100.00;100862.28;5222539;28;20042;-72
2022/02/04 08:46:58;;;;;;;7.85;6.82;;;;;;;8.30;100.00;100866.44;5211362;28;20029;-72
2022/02/04 08:52:38;;;;;;;7.93;7.00;;;;;;;8.32;100.00;100855.88;5221207;28;20049;-72
2022/02/04 08:55:20;;;;;;;7.90;7.10;;;;;;;8.29;100.00;100854.31;5220021;28;20497;-72
2022/02/04 08:58:04;;;;;;;8.13;7.32;;;;;;;8.21;100.00;100859.28;5218885;28;20033;-74
2022/02/04 09:00:45;;;;;;;8.32;7.30;;;;;;;8.24;100.00;100853.84;5224249;28;20072;-72
2022/02/04 09:03:47;;;;;;;7.68;6.68;;;;;;;8.26;100.00;100858.00;5222588;28;20044;-72
2022/02/04 09:06:26;;;;;;;7.88;7.07;;;;;;;8.24;100.00;100866.88;5223141;28;20113;-72
2022/02/04 09:09:00;;;;;;;7.88;7.07;;;;;;;8.25;100.00;100860.72;5223543;28;20060;-72
2022/02/04 09:17:13;;;;;;;7.70;7.00;;;;;;;8.27;100.00;100848.41;5225993;28;20544;-72
2022/02/04 09:20:10;;;;;;;7.72;7.03;;;;;;;8.32;100.00;100848.88;5223385;28;20068;-72
2022/02/04 09:22:43;;;;;;;7.75;6.95;;;;;;;8.32;100.00;100833.22;5224992;28;20053;-72
2022/02/04 09:25:14;;;;;;;8.18;7.05;;;;;;;8.31;100.00;100831.56;5226560;28;20440;-72
2022/02/04 09:27:45;;;;;;;8.32;7.20;;;;;;;8.43;100.00;100825.44;5222805;28;20037;-72
2022/02/04 09:30:18;;;;;;;7.35;6.65;;;;;;;8.44;100.00;100828.88;5224984;28;20033;-72
2022/02/04 09:32:50;;;;;;;8.00;7.20;;;;;;;8.47;100.00;100824.25;5223148;28;20029;-72
2022/02/04 09:35:23;;;;;;;7.80;7.00;;;;;;;8.43;100.00;100815.00;5217869;28;20091;-73
2022/02/04 09:37:55;;;;;;;7.80;7.00;;;;;;;8.46;100.00;100812.16;5222291;28;20018;-73
2022/02/04 09:40:26;;;;;;;7.65;6.80;;;;;;;8.43;100.00;100812.38;5216360;28;20025;-74
2022/02/04 09:42:57;;;;;;;7.88;6.72;;;;;;;8.47;100.00;100805.97;5223335;28;20510;-72
2022/02/04 09:45:30;;;;;;;8.77;7.88;;;;;;;8.47;100.00;100805.97;5222036;28;20504;-72
2022/02/04 09:48:05;;;;;;;16.67;14.95;;;;;;;8.58;100.00;100804.31;5222317;28;20029;-72
2022/02/04 09:50:42;;;;;;;11.55;10.35;;;;;;;8.56;100.00;100793.16;5219606;28;20306;-74
2022/02/04 10:07:40;;;;;;;8.38;6.38;;;;;;;8.58;100.00;100797.31;5221735;28;20037;-74
2022/02/04 10:10:46;;;;;;;7.40;6.50;;;;;;;8.50;100.00;100782.25;5216419;28;20064;-75
2022/02/04 10:13:51;;;;;;;7.00;6.30;;;;;;;8.53;100.00;100795.06;5219938;28;20549;-74
2022/02/04 10:16:51;;;;;;;6.68;5.97;;;;;;;8.52;100.00;100789.94;5219646;28;20069;-74
2022/02/04 10:19:26;;;;;;;6.82;6.13;;;;;;;8.50;100.00;100777.03;5218957;28;20053;-75
2022/02/04 10:21:59;;;;;;;7.07;6.28;;;;;;;8.43;100.00;100781.06;5217812;28;20506;-74
2022/02/04 10:24:33;;;;;;;9.05;5.80;;;;;;;8.50;100.00;100773.59;5220593;28;20033;-75
2022/02/04 10:27:18;;;;;;;7.07;5.63;;;;;;;8.50;100.00;100763.13;5204154;28;20095;-75
2022/02/04 10:29:54;;;;;;;6.55;5.85;;;;;;;8.57;100.00;100755.66;5217823;28;20041;-75
2022/02/04 10:32:42;;;;;;;7.45;6.20;;;;;;;8.57;100.00;100756.50;5218094;28;20021;-74
2022/02/04 10:35:27;;;;;;;7.95;6.50;;;;;;;8.66;100.00;100744.50;5219744;28;20076;-74
2022/02/04 10:40:54;;;;;;;7.60;5.80;;;;;;;8.73;100.00;100737.84;5216839;28;20077;-75
2022/02/04 10:43:45;;;;;;;5.50;4.85;;;;;;;8.64;100.00;100726.34;5219915;28;20062;-75
2022/02/04 10:52:08;;;;;;;14.18;12.48;;;;;;;8.81;100.00;100719.78;5220851;28;20129;-74
2022/02/04 11:00:13;;;;;;;5.60;4.32;;;;;;;8.83;100.00;100728.34;5220608;28;20136;-74
2022/02/04 11:05:27;;;;;;;5.88;4.30;;;;;;;8.94;100.00;100706.56;5217259;28;20075;-74
2022/02/04 11:10:54;;;;;;;5.63;4.70;;;;;;;9.07;100.00;100701.19;5220850;28;20035;-74
2022/02/04 11:36:22;;;;;;;6.43;4.28;;;;;;;9.39;100.00;100620.94;5217813;28;20052;-74
2022/02/04 11:54:35;;;;;;;4.70;3.67;;;;;;;9.59;100.00;100568.78;5221251;28;20494;-74
2022/02/04 11:57:07;;;;;;;4.05;3.65;;;;;;;9.51;100.00;100561.59;5219769;28;20053;-74
2022/02/04 11:59:39;;;;;;;25.83;18.60;;;;;;;9.49;100.00;100553.84;5213423;28;20120;-74
2022/02/04 12:02:26;;;;;;;12.30;9.40;;;;;;;9.52;100.00;100549.34;5200836;28;20037;-74
2022/02/04 12:05:16;;;;;;;6.68;4.95;;;;;;;9.51;100.00;100545.91;5211623;28;20037;-74
2022/02/04 12:08:14;;;;;;;4.55;3.05;;;;;;;9.55;100.00;100549.06;5219428;28;20040;-74
2022/02/04 12:10:50;;;;;;;2.92;2.30;;;;;;;9.56;100.00;100550.72;5220413;28;20033;-74
2022/02/04 12:13:24;;;;;;;25.92;19.10;;;;;;;9.60;100.00;100544.28;5219128;28;20057;-74
2022/02/04 12:16:07;;;;;;;9.95;7.63;;;;;;;9.67;100.00;100537.56;5221402;28;20029;-74
2022/02/04 12:18:44;;;;;;;4.63;3.58;;;;;;;9.65;100.00;100536.84;5219777;28;20037;-74
2022/02/04 12:21:20;;;;;;;3.90;3.22;;;;;;;9.75;100.00;100519.41;5217722;28;20032;-74
2022/02/04 12:23:54;;;;;;;4.03;3.40;;;;;;;9.74;100.00;100517.75;5219088;28;20033;-74
2022/02/04 12:26:33;;;;;;;5.28;3.33;;;;;;;9.69;100.00;100514.69;5217789;28;20029;-74
2022/02/04 12:29:07;;;;;;;5.20;3.25;;;;;;;9.62;100.00;100500.50;5201585;28;20053;-74
2022/02/04 12:31:42;;;;;;;3.67;3.13;;;;;;;9.55;100.00;100502.81;5197240;28;20026;-72
2022/02/04 12:34:18;;;;;;;3.47;2.97;;;;;;;9.45;100.00;100508.00;5219105;28;20022;-72
2022/02/04 12:36:54;;;;;;;4.88;3.47;;;;;;;9.62;100.00;100503.09;5223155;28;20105;-72
2022/02/04 12:39:35;;;;;;;3.88;3.25;;;;;;;9.67;100.00;100498.31;5223500;28;20121;-72
2022/02/04 12:42:08;;;;;;;4.95;3.17;;;;;;;9.65;100.00;100495.00;5224919;28;20084;-72
2022/02/04 12:44:41;;;;;;;4.47;3.67;;;;;;;9.61;100.00;100481.34;5222429;28;20079;-72
2022/02/04 12:47:17;;;;;;;4.35;3.50;;;;;;;9.67;100.00;100488.69;5223898;28;20021;-72
2022/02/04 12:49:53;;;;;;;5.47;3.70;;;;;;;9.73;100.00;100475.06;5205118;28;20061;-72
2022/02/04 12:52:41;;;;;;;6.13;4.20;;;;;;;9.78;100.00;100468.63;5223287;28;20038;-72
2022/02/04 12:55:23;;;;;;;4.55;3.75;;;;;;;9.77;100.00;100470.38;5222982;28;20030;-73
2022/02/04 13:03:29;;;;;;;4.68;3.80;;;;;;;9.81;100.00;100445.63;5215011;28;20551;-74
2022/02/04 13:09:21;;;;;;;8.68;6.47;;;;;;;9.74;100.00;100428.81;5216292;28;20124;-74
2022/02/04 13:11:41;;;;;;;6.88;5.88;;;;;;;9.78;100.00;100426.75;5216690;28;20569;-74
2022/02/04 13:14:26;;;;;;;10.70;8.73;;;;;;;9.88;100.00;100420.56;5216524;28;20018;-73
2022/02/04 13:16:58;;;;;;;6.40;4.90;;;;;;;9.76;100.00;100416.41;5213075;28;20033;-73
2022/02/04 13:19:30;;;;;;;7.30;4.40;;;;;;;9.66;100.00;100420.78;5216358;28;20026;-73
2022/02/04 13:22:02;;;;;;;5.10;4.05;;;;;;;9.72;100.00;100410.63;5217065;28;20486;-74
2022/02/04 13:24:33;;;;;;;6.25;4.82;;;;;;;9.73;100.00;100401.81;5217188;28;20026;-74
2022/02/04 13:27:12;;;;;;;13.20;10.52;;;;;;;9.75;100.00;100399.06;5217075;28;20103;-74
2022/02/04 13:29:44;;;;;;;6.53;4.60;;;;;;;9.63;100.00;100397.53;5215697;28;20029;-74
2022/02/04 13:32:25;;;;;;;4.85;3.92;;;;;;;9.61;100.00;100400.28;5217347;28;20434;-74
2022/02/04 13:34:56;;;;;;;6.22;3.92;;;;;;;9.60;100.00;100403.03;5216817;28;20044;-74
2022/02/04 13:37:35;;;;;;;5.03;4.00;;;;;;;9.57;100.00;100400.69;5215912;28;20018;-74
2022/02/04 13:40:17;;;;;;;5.80;4.00;;;;;;;9.36;100.00;100401.63;5216642;28;20128;-74
2022/02/04 13:42:52;;;;;;;7.60;5.32;;;;;;;9.17;100.00;100391.09;5214760;28;20028;-74
2022/02/04 13:45:36;;;;;;;6.65;5.05;;;;;;;9.16;100.00;100397.25;5216288;28;20109;-74
2022/02/04 13:48:18;;;;;;;7.20;5.32;;;;;;;9.05;100.00;100382.50;5213024;28;20175;-74
2022/02/04 13:52:00;;;;;;;7.07;5.15;;;;;;;8.99;100.00;100385.66;5214739;28;20036;-74
2022/02/04 13:57:26;;;;;;;8.05;5.50;;;;;;;9.02;100.00;100370.53;5217150;28;20052;-75
2022/02/04 14:00:10;;;;;;;8.10;5.40;;;;;;;8.75;100.00;100368.50;5215342;28;20077;-75
2022/02/04 14:02:46;;;;;;;6.90;5.20;;;;;;;8.78;100.00;100365.59;5209161;28;20132;-75
2022/02/04 14:05:30;;;;;;;8.55;5.97;;;;;;;8.78;100.00;100356.94;5217849;28;20037;-75
2022/02/04 14:08:11;;;;;;;8.30;5.57;;;;;;;8.77;100.00;100363.13;5216271;28;20052;-74
2022/02/04 14:10:52;;;;;;;10.70;5.80;;;;;;;8.77;100.00;100350.06;5215277;28;20040;-74
2022/02/04 14:13:26;;;;;;;8.15;6.13;;;;;;;8.70;100.00;100364.59;5216440;28;20034;-74
2022/02/04 14:16:01;;;;;;;8.55;5.15;;;;;;;8.65;100.00;100362.38;5216429;28;20087;-74
2022/02/04 14:18:35;;;;;;;12.68;9.00;;;;;;;8.61;100.00;100354.94;5216694;28;20038;-74
2022/02/04 14:21:09;;;;;;;12.52;10.43;;;;;;;8.61;100.00;100365.41;5216898;28;20030;-75
2022/02/04 14:23:41;;;;;;;14.52;11.50;;;;;;;8.56;100.00;100367.53;5213936;28;20033;-75
2022/02/04 14:26:20;;;;;;;12.07;9.52;;;;;;;8.56;100.00;100357.09;5217518;28;20513;-73
2022/02/04 14:29:02;;;;;;;13.40;8.25;;;;;;;8.50;100.00;100367.13;5215514;28;20447;-74
2022/02/04 14:49:22;;;;;;;9.98;5.85;;;;;;;8.48;100.00;100342.09;5218328;28;20030;-74
2022/02/04 14:54:07;;;;;;;10.23;4.10;;;;;;;8.47;100.00;100384.81;5216207;28;20125;-74
2022/02/04 15:02:09;;;;;;;2.50;1.15;;;;;;;7.94;100.00;100455.22;5214911;28;20030;-76
2022/02/04 15:04:51;;;;;;;3.00;0.77;;;;;;;7.74;100.00;100488.13;5215345;28;20022;-74
2022/02/04 15:07:31;;;;;;;2.15;1.00;;;;;;;7.43;100.00;100513.97;5214255;28;20030;-75
2022/02/04 15:10:04;;;;;;;2.45;1.00;;;;;;;7.17;100.00;100528.16;5215925;28;20061;-74
2022/02/04 15:12:35;;;;;;;3.58;0.75;;;;;;;7.22;100.00;100547.69;5215210;28;20022;-75
2022/02/04 15:15:07;;;;;;;0.70;0.30;;;;;;;6.76;100.00;100556.31;5214989;28;20088;-74
2022/02/04 15:17:38;;;;;;;1.33;0.40;;;;;;;6.52;100.00;100569.34;5214764;28;20116;-74
2022/02/04 15:20:09;;;;;;;1.15;0.30;;;;;;;6.35;100.00;100582.72;5214549;28;20022;-74
2022/02/04 15:22:41;;;;;;;1.00;0.30;;;;;;;6.36;100.00;100589.59;5215160;28;20095;-75
2022/02/04 15:25:19;;;;;;;1.17;0.40;;;;;;;6.16;100.00;100595.38;5215479;28;20053;-75
2022/02/04 15:28:03;;;;;;;0.63;0.40;;;;;;;6.03;100.00;100614.47;5215550;28;20582;-74
2022/02/04 15:30:38;;;;;;;0.90;0.30;;;;;;;6.00;100.00;100626.84;5215185;28;20467;-74
2022/02/04 15:33:10;;;;;;;1.80;0.40;;;;;;;5.83;100.00;100640.94;5205264;28;20033;-74
2022/02/04 15:35:42;;;;;;;1.15;0.50;;;;;;;5.78;100.00;100643.03;5214431;28;20022;-74
2022/02/04 15:38:13;;;;;;;3.97;0.68;;;;;;;5.86;100.00;100661.53;5214882;28;20072;-74
2022/02/04 15:40:46;;;;;;;1.85;0.68;;;;;;;5.83;100.00;100669.53;5220339;28;20397;-76
2022/02/04 15:43:18;;;;;;;1.70;0.60;;;;;;;5.80;100.00;100685.38;5213544;28;20073;-74
2022/02/04 15:46:15;;;;;;;0.82;0.30;;;;;;;5.75;100.00;100692.63;5215070;28;20549;-74
2022/02/04 15:49:08;;;;;;;;;;;;;;;6.19;100.00;100707.03;5214499;28;20052;-74
2022/02/04 15:51:44;;;;;;;1.48;0.50;;;;;;;5.70;100.00;100718.94;5213898;28;19924;-74
2022/02/04 15:54:42;;;;;;;2.30;0.70;;;;;;;5.67;100.00;100719.13;5215240;28;20091;-74
2022/02/04 15:57:35;;;;;;;1.58;0.85;;;;;;;5.68;100.00;100732.94;5211763;28;20121;-76
2022/02/04 16:05:15;;;;;;;2.25;1.23;;;;;;;5.52;100.00;100751.31;5215033;28;20060;-74
2022/02/04 16:07:46;;;;;;;4.25;1.20;;;;;;;5.57;100.00;100764.88;5214658;28;20033;-75
2022/02/04 16:10:27;;;;;;;3.38;1.20;;;;;;;5.44;100.00;100771.78;5217173;28;20045;-74
2022/02/04 16:13:24;;;;;;;1.80;1.20;;;;;;;5.45;100.00;100791.63;5210308;28;20446;-74
2022/02/04 16:16:33;;;;;;;3.70;1.30;;;;;;;5.52;100.00;100795.50;5219729;28;20378;-74
2022/02/04 16:22:03;;;;;;;2.10;1.00;;;;;;;5.51;100.00;100819.81;5219280;28;20144;-74
2022/02/04 16:24:48;;;;;;;3.35;1.27;;;;;;;5.45;100.00;100820.19;5219400;28;20029;-74
2022/02/04 16:29:54;;;;;;;1.60;0.70;;;;;;;5.49;100.00;100847.66;5219345;28;20095;-74
2022/02/04 16:32:27;;;;;;;3.15;1.13;;;;;;;5.42;100.00;100856.75;5218787;28;20033;-75
2022/02/04 16:35:03;;;;;;;2.65;1.08;;;;;;;5.36;100.00;100865.78;5218118;28;20084;-75
2022/02/04 16:37:36;;;;;;;3.05;1.23;;;;;;;5.38;100.00;100884.72;5200276;28;20482;-74
2022/02/04 16:40:14;;;;;;;2.95;1.20;;;;;;;5.23;100.00;100876.13;5219683;28;20129;-74
2022/02/04 16:42:46;;;;;;;2.58;0.95;;;;;;;5.13;100.00;100877.63;5216094;28;20104;-74
2022/02/04 16:45:17;;;;;;;3.75;1.15;;;;;;;5.05;100.00;100896.25;5219105;28;20030;-74
2022/02/04 16:47:51;;;;;;;2.25;0.98;;;;;;;5.08;100.00;100911.66;5217499;28;20057;-74
2022/02/04 16:50:23;;;;;;;4.93;1.10;;;;;;;5.07;100.00;100925.53;5219155;28;20022;-74
2022/02/04 16:52:54;;;;;;;4.72;0.90;;;;;;;4.99;100.00;100926.94;5218292;28;20454;-74
2022/02/04 16:55:26;;;;;;;2.95;0.85;;;;;;;5.07;100.00;100941.13;5218191;28;20109;-74
2022/02/04 16:57:58;;;;;;;4.22;1.05;;;;;;;5.05;100.00;100953.38;5218184;28;20029;-75
2022/02/04 17:00:29;;;;;;;5.78;1.02;;;;;;;5.10;100.00;100961.72;5217271;28;20058;-74
2022/02/04 17:03:06;;;;;;;5.05;0.95;;;;;;;5.07;100.00;100972.28;5216786;28;20076;-75
2022/02/04 17:05:49;;;;;;;4.43;1.05;;;;;;;5.06;100.00;100975.00;5219554;28;20481;-75
2022/02/04 17:09:20;;;;;;;4.85;1.10;;;;;;;5.08;100.00;100992.16;5215997;28;20120;-74
2022/02/04 17:11:19;;;;;;;2.50;0.98;;;;;;;5.05;100.00;101002.72;5202524;28;20069;-74
2022/02/04 17:13:51;;;;;;;5.13;1.00;;;;;;;4.98;100.00;100998.81;5211243;28;20029;-74
2022/02/04 17:16:22;;;;;;;7.88;1.30;;;;;;;5.00;100.00;101006.50;5218458;28;20038;-74
2022/02/04 17:18:55;;;;;;;3.70;1.10;;;;;;;5.00;100.00;101020.34;5218325;28;20061;-74
2022/02/04 17:21:29;;;;;;;4.40;1.30;;;;;;;4.94;100.00;101010.31;5216868;28;20049;-74
2022/02/04 17:24:00;;;;;;;12.32;1.80;;;;;;;4.98;100.00;101024.78;5217941;28;20029;-75
2022/02/04 17:26:32;;;;;;;8.48;1.85;;;;;;;4.99;100.00;101036.00;5217952;28;20387;-74
2022/02/04 17:29:03;;;;;;;5.22;1.50;;;;;;;4.91;100.00;101038.22;5217307;28;20029;-74
2022/02/04 17:31:36;;;;;;;11.05;1.67;;;;;;;4.90;100.00;101060.75;5216200;28;20080;-74
2022/02/04 17:34:07;;;;;;;5.10;1.73;;;;;;;4.87;100.00;101051.34;5218754;28;20068;-74
2022/02/04 17:36:39;;;;;;;4.25;1.30;;;;;;;4.85;100.00;101055.81;5218732;28;20038;-74
2022/02/04 17:39:19;;;;;;;8.32;1.42;;;;;;;4.84;100.00;101066.28;5216680;28;20088;-75
2022/02/04 17:41:54;;;;;;;3.97;1.50;;;;;;;4.82;100.00;101073.31;5216682;28;20061;-74
2022/02/04 17:44:29;;;;;;;8.57;1.55;;;;;;;4.83;100.00;101080.19;5217461;28;20040;-74